sensor_id;sensor_type;location;lat;lon;timestamp;pressure;altitude;pressure_sealevel;temperature;humidity
50282;BME280;36176;51.506;10.272;2023-06-22T00:00:22;99757.59;;;18.22;100.00
50282;BME280;36176;51.506;10.272;2023-06-22T00:02:49;99767.69;;;18.19;100.00
50282;BME280;36176;51.506;10.272;2023-06-22T00:05:16;99773.78;;;18.21;100.00
50282;BME280;36176;51.506;10.272;2023-06-22T00:07:43;99783.44;;;18.23;100.00
50282;BME280;36176;51.506;10.272;2023-06-22T00:10:11;99795.00;;;18.24;100.00
50282;BME280;36176;51.506;10.272;2023-06-22T00:12:38;99792.16;;;18.14;100.00
50282;BME280;36176;51.506;10.272;2023-06-22T00:15:05;99795.31;;;18.08;100.00
50282;BME280;36176;51.506;10.272;2023-06-22T00:17:32;99801.28;;;18.12;100.00
50282;BME280;36176;51.506;10.272;2023-06-22T00:20:00;99801.19;;;18.13;100.00
50282;BME280;36176;51.506;10.272;2023-06-22T00:22:27;99794.09;;;18.12;100.00
50282;BME280;36176;51.506;10.272;2023-06-22T00:24:57;99793.47;;;18.09;100.00
50282;BME280;36176;51.506;10.272;2023-06-22T00:27:24;99791.13;;;18.04;100.00
50282;BME280;36176;51.506;10.272;2023-06-22T00:29:51;99774.63;;;17.97;100.00
50282;BME280;36176;51.506;10.272;2023-06-22T00:32:18;99777.97;;;17.88;100.00
50282;BME280;36176;51.506;10.272;2023-06-22T00:34:46;99775.06;;;17.78;100.00
50282;BME280;36176;51.506;10.272;2023-06-22T00:37:13;99771.25;;;17.70;100.00
50282;BME280;36176;51.506;10.272;2023-06-22T00:39:41;99761.75;;;17.53;100.00
50282;BME280;36176;51.506;10.272;2023-06-22T00:42:08;99763.47;;;17.41;100.00
50282;BME280;36176;51.506;10.272;2023-06-22T00:44:36;99760.47;;;17.33;100.00
50282;BME280;36176;51.506;10.272;2023-06-22T00:47:04;99762.19;;;17.34;100.00
50282;BME280;36176;51.506;10.272;2023-06-22T00:49:31;99759.06;;;17.40;100.00
50282;BME280;36176;51.506;10.272;2023-06-22T00:51:59;99768.38;;;17.47;100.00
50282;BME280;36176;51.506;10.272;2023-06-22T00:54:27;99768.16;;;17.50;100.00
50282;BME280;36176;51.506;10.272;2023-06-22T00:56:55;99768.59;;;17.44;100.00
50282;BME280;36176;51.506;10.272;2023-06-22T00:59:26;99760.88;;;17.39;100.00
50282;BME280;36176;51.506;10.272;2023-06-22T01:01:53;99757.22;;;17.40;100.00
50282;BME280;36176;51.506;10.272;2023-06-22T01:04:34;99749.94;;;17.42;100.00
50282;BME280;36176;51.506;10.272;2023-06-22T01:07:37;99745.34;;;17.44;100.00
50282;BME280;36176;51.506;10.272;2023-06-22T01:10:21;99749.94;;;17.42;100.00
50282;BME280;36176;51.506;10.272;2023-06-22T01:12:52;99746.66;;;17.39;100.00
50282;BME280;36176;51.506;10.272;2023-06-22T01:15:25;99737.97;;;17.35;100.00
50282;BME280;36176;51.506;10.272;2023-06-22T01:17:56;99739.03;;;17.33;100.00
50282;BME280;36176;51.506;10.272;2023-06-22T01:20:25;99736.47;;;17.31;100.00
50282;BME280;36176;51.506;10.272;2023-06-22T01:25:46;99728.78;;;17.27;100.00
50282;BME280;36176;51.506;10.272;2023-06-22T01:28:46;99728.25;;;17.21;100.00
50282;BME280;36176;51.506;10.272;2023-06-22T01:31:17;99727.38;;;17.21;100.00
50282;BME280;36176;51.506;10.272;2023-06-22T01:33:54;99732.41;;;17.26;100.00
50282;BME280;36176;51.506;10.272;2023-06-22T01:36:23;99727.78;;;17.28;100.00
50282;BME280;36176;51.506;10.272;2023-06-22T01:38:52;99722.53;;;17.26;100.00
50282;BME280;36176;51.506;10.272;2023-06-22T01:41:21;99715.38;;;17.27;100.00
50282;BME280;36176;51.506;10.272;2023-06-22T01:43:49;99701.56;;;17.20;100.00
50282;BME280;36176;51.506;10.272;2023-06-22T01:46:18;99706.06;;;17.19;100.00
50282;BME280;36176;51.506;10.272;2023-06-22T01:48:47;99703.41;;;17.19;100.00
50282;BME280;36176;51.506;10.272;2023-06-22T01:51:15;99700.72;;;17.19;100.00
50282;BME280;36176;51.506;10.272;2023-06-22T01:53:42;99700.72;;;17.19;100.00
50282;BME280;36176;51.506;10.272;2023-06-22T01:56:09;99703.59;;;17.16;100.00
50282;BME280;36176;51.506;10.272;2023-06-22T01:58:43;99697.06;;;17.20;100.00
50282;BME280;36176;51.506;10.272;2023-06-22T02:01:14;99687.34;;;17.19;100.00
50282;BME280;36176;51.506;10.272;2023-06-22T02:04:03;99696.97;;;17.22;100.00
50282;BME280;36176;51.506;10.272;2023-06-22T02:06:37;99697.81;;;17.22;100.00
50282;BME280;36176;51.506;10.272;2023-06-22T02:09:12;99696.00;;;17.23;100.00
50282;BME280;36176;51.506;10.272;2023-06-22T02:11:42;99702.84;;;17.27;100.00
50282;BME280;36176;51.506;10.272;2023-06-22T02:14:10;99698.13;;;17.31;100.00
50282;BME280;36176;51.506;10.272;2023-06-22T02:16:40;99703.38;;;17.32;100.00
50282;BME280;36176;51.506;10.272;2023-06-22T02:19:07;99704.34;;;17.31;100.00
50282;BME280;36176;51.506;10.272;2023-06-22T02:21:35;99711.41;;;17.32;100.00
50282;BME280;36176;51.506;10.272;2023-06-22T02:24:02;99715.44;;;17.38;100.00
50282;BME280;36176;51.506;10.272;2023-06-22T02:26:30;99718.78;;;17.41;100.00
50282;BME280;36176;51.506;10.272;2023-06-22T02:28:58;99723.16;;;17.42;100.00
50282;BME280;36176;51.506;10.272;2023-06-22T02:31:26;99732.78;;;17.45;100.00
50282;BME280;36176;51.506;10.272;2023-06-22T02:33:58;99737.53;;;17.41;100.00
50282;BME280;36176;51.506;10.272;2023-06-22T02:36:25;99750.16;;;17.39;100.00
50282;BME280;36176;51.506;10.272;2023-06-22T02:38:54;99753.59;;;17.41;100.00
50282;BME280;36176;51.506;10.272;2023-06-22T02:41:23;99758.88;;;17.43;100.00
50282;BME280;36176;51.506;10.272;2023-06-22T02:43:50;99761.53;;;17.43;100.00
50282;BME280;36176;51.506;10.272;2023-06-22T02:46:17;99761.41;;;17.44;100.00
50282;BME280;36176;51.506;10.272;2023-06-22T02:48:44;99771.06;;;17.47;100.00
50282;BME280;36176;51.506;10.272;2023-06-22T02:51:13;99774.47;;;17.49;100.00
50282;BME280;36176;51.506;10.272;2023-06-22T02:53:40;99775.97;;;17.53;100.00
50282;BME280;36176;51.506;10.272;2023-06-22T02:56:11;99785.31;;;17.60;100.00
50282;BME280;36176;51.506;10.272;2023-06-22T02:58:39;99780.38;;;17.67;100.00
50282;BME280;36176;51.506;10.272;2023-06-22T03:01:06;99789.78;;;17.73;100.00
50282;BME280;36176;51.506;10.272;2023-06-22T03:03:33;99791.38;;;17.75;100.00
50282;BME280;36176;51.506;10.272;2023-06-22T03:06:01;99803.78;;;17.76;100.00
50282;BME280;36176;51.506;10.272;2023-06-22T03:08:28;99803.78;;;17.76;100.00
50282;BME280;36176;51.506;10.272;2023-06-22T03:10:56;99808.00;;;17.80;100.00
50282;BME280;36176;51.506;10.272;2023-06-22T03:13:23;99810.47;;;17.83;100.00
50282;BME280;36176;51.506;10.272;2023-06-22T03:15:50;99812.94;;;17.87;100.00
50282;BME280;36176;51.506;10.272;2023-06-22T03:18:18;99803.91;;;17.88;100.00
50282;BME280;36176;51.506;10.272;2023-06-22T03:20:45;99804.78;;;17.88;100.00
50282;BME280;36176;51.506;10.272;2023-06-22T03:23:12;99810.25;;;17.87;100.00
50282;BME280;36176;51.506;10.272;2023-06-22T03:25:41;99796.88;;;17.87;100.00
50282;BME280;36176;51.506;10.272;2023-06-22T03:28:09;99797.47;;;17.90;100.00
50282;BME280;36176;51.506;10.272;2023-06-22T03:30:37;99801.75;;;17.93;100.00
50282;BME280;36176;51.506;10.272;2023-06-22T03:33:04;99795.44;;;17.94;100.00
50282;BME280;36176;51.506;10.272;2023-06-22T03:35:31;99799.72;;;17.96;100.00
50282;BME280;36176;51.506;10.272;2023-06-22T03:37:58;99808.63;;;17.97;100.00
50282;BME280;36176;51.506;10.272;2023-06-22T03:40:26;99801.16;;;17.89;100.00
50282;BME280;36176;51.506;10.272;2023-06-22T03:42:53;99794.69;;;17.79;100.00
50282;BME280;36176;51.506;10.272;2023-06-22T03:45:21;99788.50;;;17.65;100.00
50282;BME280;36176;51.506;10.272;2023-06-22T03:47:48;99776.59;;;17.57;100.00
50282;BME280;36176;51.506;10.272;2023-06-22T03:50:15;99769.03;;;17.51;100.00
50282;BME280;36176;51.506;10.272;2023-06-22T03:52:42;99763.66;;;17.51;100.00
50282;BME280;36176;51.506;10.272;2023-06-22T03:55:09;99762.91;;;17.49;100.00
50282;BME280;36176;51.506;10.272;2023-06-22T03:57:36;99756.81;;;17.47;100.00
50282;BME280;36176;51.506;10.272;2023-06-22T04:00:04;99759.38;;;17.48;100.00
50282;BME280;36176;51.506;10.272;2023-06-22T04:02:33;99760.66;;;17.55;100.00
50282;BME280;36176;51.506;10.272;2023-06-22T04:05:00;99752.16;;;17.61;100.00
50282;BME280;36176;51.506;10.272;2023-06-22T04:07:30;99751.84;;;17.66;100.00
50282;BME280;36176;51.506;10.272;2023-06-22T04:09:57;99740.47;;;17.75;100.00
50282;BME280;36176;51.506;10.272;2023-06-22T04:12:25;99733.16;;;17.90;100.00
50282;BME280;36176;51.506;10.272;2023-06-22T04:14:52;99737.75;;;18.01;100.00
50282;BME280;36176;51.506;10.272;2023-06-22T04:17:19;99726.84;;;18.15;100.00
50282;BME280;36176;51.506;10.272;2023-06-22T04:19:46;99724.94;;;18.28;100.00
50282;BME280;36176;51.506;10.272;2023-06-22T04:22:13;99721.81;;;18.35;100.00
50282;BME280;36176;51.506;10.272;2023-06-22T04:24:40;99718.13;;;18.36;100.00
50282;BME280;36176;51.506;10.272;2023-06-22T04:27:07;99714.50;;;18.37;100.00
50282;BME280;36176;51.506;10.272;2023-06-22T04:29:34;99715.75;;;18.44;100.00
50282;BME280;36176;51.506;10.272;2023-06-22T04:32:02;99716.13;;;18.50;100.00
50282;BME280;36176;51.506;10.272;2023-06-22T04:34:36;99715.56;;;18.58;100.00
50282;BME280;36176;51.506;10.272;2023-06-22T04:37:08;99705.81;;;18.68;100.00
50282;BME280;36176;51.506;10.272;2023-06-22T04:39:37;99702.31;;;18.79;100.00
50282;BME280;36176;51.506;10.272;2023-06-22T04:42:08;99701.50;;;18.90;100.00
50282;BME280;36176;51.506;10.272;2023-06-22T04:44:47;99699.06;;;18.98;100.00
50282;BME280;36176;51.506;10.272;2023-06-22T04:47:20;99700.16;;;19.07;100.00
50282;BME280;36176;51.506;10.272;2023-06-22T04:49:48;99704.19;;;19.12;100.00
50282;BME280;36176;51.506;10.272;2023-06-22T04:52:15;99698.25;;;19.20;100.00
50282;BME280;36176;51.506;10.272;2023-06-22T04:54:44;99701.25;;;19.27;100.00
50282;BME280;36176;51.506;10.272;2023-06-22T04:57:17;99705.16;;;19.34;100.00
50282;BME280;36176;51.506;10.272;2023-06-22T04:59:45;99709.34;;;19.38;100.00
50282;BME280;36176;51.506;10.272;2023-06-22T05:02:12;99703.97;;;19.38;100.00
50282;BME280;36176;51.506;10.272;2023-06-22T05:04:39;99703.84;;;19.40;100.00
50282;BME280;36176;51.506;10.272;2023-06-22T05:07:07;99703.97;;;19.38;100.00
50282;BME280;36176;51.506;10.272;2023-06-22T05:09:34;99716.28;;;19.41;100.00
50282;BME280;36176;51.506;10.272;2023-06-22T05:12:02;99715.44;;;19.40;100.00
50282;BME280;36176;51.506;10.272;2023-06-22T05:14:30;99716.28;;;19.41;100.00
50282;BME280;36176;51.506;10.272;2023-06-22T05:16:59;99720.81;;;19.40;100.00
50282;BME280;36176;51.506;10.272;2023-06-22T05:19:27;99723.63;;;19.39;100.00
50282;BME280;36176;51.506;10.272;2023-06-22T05:22:01;99724.47;;;19.39;100.00
50282;BME280;36176;51.506;10.272;2023-06-22T05:24:28;99724.59;;;19.38;100.00
50282;BME280;36176;51.506;10.272;2023-06-22T05:26:55;99722.66;;;19.40;100.00
50282;BME280;36176;51.506;10.272;2023-06-22T05:29:22;99731.66;;;19.39;100.00
50282;BME280;36176;51.506;10.272;2023-06-22T05:31:49;99733.16;;;19.43;100.00
50282;BME280;36176;51.506;10.272;2023-06-22T05:34:16;99729.94;;;19.49;100.00
50282;BME280;36176;51.506;10.272;2023-06-22T05:36:44;99730.31;;;19.55;100.00
50282;BME280;36176;51.506;10.272;2023-06-22T05:39:12;99725.06;;;19.65;100.00
50282;BME280;36176;51.506;10.272;2023-06-22T05:41:44;99727.03;;;19.74;100.00
50282;BME280;36176;51.506;10.272;2023-06-22T05:44:11;99718.97;;;19.86;100.00
50282;BME280;36176;51.506;10.272;2023-06-22T05:46:41;99718.06;;;19.96;100.00
50282;BME280;36176;51.506;10.272;2023-06-22T05:49:12;99725.84;;;20.11;100.00
50282;BME280;36176;51.506;10.272;2023-06-22T05:51:40;99718.75;;;20.21;100.00
50282;BME280;36176;51.506;10.272;2023-06-22T05:54:10;99711.59;;;20.31;98.68
50282;BME280;36176;51.506;10.272;2023-06-22T05:56:40;99710.28;;;20.47;99.69
50282;BME280;36176;51.506;10.272;2023-06-22T05:59:07;99710.00;;;20.61;98.26
50282;BME280;36176;51.506;10.272;2023-06-22T06:01:35;99707.72;;;20.77;98.54
50282;BME280;36176;51.506;10.272;2023-06-22T06:04:03;99707.72;;;20.98;97.92
50282;BME280;36176;51.506;10.272;2023-06-22T06:06:31;99710.19;;;21.11;96.58
50282;BME280;36176;51.506;10.272;2023-06-22T06:08:58;99712.25;;;21.29;95.38
50282;BME280;36176;51.506;10.272;2023-06-22T06:11:27;99715.91;;;21.49;94.64
50282;BME280;36176;51.506;10.272;2023-06-22T06:14:14;99716.00;;;21.78;94.59
50282;BME280;36176;51.506;10.272;2023-06-22T06:16:55;99715.06;;;22.08;91.87
50282;BME280;36176;51.506;10.272;2023-06-22T06:19:23;99719.09;;;22.33;89.89
50282;BME280;36176;51.506;10.272;2023-06-22T06:21:59;99723.06;;;22.58;88.97
50282;BME280;36176;51.506;10.272;2023-06-22T06:24:35;99728.16;;;22.81;86.76
50282;BME280;36176;51.506;10.272;2023-06-22T06:27:06;99727.00;;;22.83;85.75
50282;BME280;36176;51.506;10.272;2023-06-22T06:29:37;99715.50;;;22.81;86.67
50282;BME280;36176;51.506;10.272;2023-06-22T06:32:05;99710.09;;;22.81;86.05
50282;BME280;36176;51.506;10.272;2023-06-22T06:34:33;99711.94;;;22.81;86.16
50282;BME280;36176;51.506;10.272;2023-06-22T06:37:01;99711.41;;;22.77;86.13
50282;BME280;36176;51.506;10.272;2023-06-22T06:39:28;99721.34;;;22.67;85.58
50282;BME280;36176;51.506;10.272;2023-06-22T06:41:56;99718.38;;;22.70;86.44
50282;BME280;36176;51.506;10.272;2023-06-22T06:44:24;99717.66;;;22.78;85.09
50282;BME280;36176;51.506;10.272;2023-06-22T06:46:52;99719.47;;;22.87;85.70
50282;BME280;36176;51.506;10.272;2023-06-22T06:49:21;99718.34;;;22.89;84.63
50282;BME280;36176;51.506;10.272;2023-06-22T06:51:49;99712.94;;;22.89;84.52
50282;BME280;36176;51.506;10.272;2023-06-22T06:54:23;99714.09;;;22.77;84.48
50282;BME280;36176;51.506;10.272;2023-06-22T06:56:57;99715.34;;;22.83;85.23
50282;BME280;36176;51.506;10.272;2023-06-22T06:59:24;99711.78;;;22.92;84.91
50282;BME280;36176;51.506;10.272;2023-06-22T07:01:51;99713.19;;;22.96;85.20
50282;BME280;36176;51.506;10.272;2023-06-22T07:04:19;99718.31;;;23.09;86.35
50282;BME280;36176;51.506;10.272;2023-06-22T07:06:46;99713.25;;;23.33;85.83
50282;BME280;36176;51.506;10.272;2023-06-22T07:09:13;99710.25;;;23.64;84.26
50282;BME280;36176;51.506;10.272;2023-06-22T07:11:40;99705.09;;;23.98;84.53
50282;BME280;36176;51.506;10.272;2023-06-22T07:14:07;99704.81;;;24.19;81.88
50282;BME280;36176;51.506;10.272;2023-06-22T07:16:34;99706.72;;;24.27;81.47
50282;BME280;36176;51.506;10.272;2023-06-22T07:19:02;99711.00;;;24.30;80.32
50282;BME280;36176;51.506;10.272;2023-06-22T07:21:29;99710.28;;;24.28;79.95
50282;BME280;36176;51.506;10.272;2023-06-22T07:23:56;99700.63;;;24.25;80.54
50282;BME280;36176;51.506;10.272;2023-06-22T07:26:24;99691.28;;;24.37;80.56
50282;BME280;36176;51.506;10.272;2023-06-22T07:28:51;99696.75;;;24.63;80.09
50282;BME280;36176;51.506;10.272;2023-06-22T07:31:18;99688.53;;;24.99;78.94
50282;BME280;36176;51.506;10.272;2023-06-22T07:33:45;99696.25;;;25.38;77.57
50282;BME280;36176;51.506;10.272;2023-06-22T07:36:12;99694.97;;;25.93;76.82
50282;BME280;36176;51.506;10.272;2023-06-22T07:38:39;99701.34;;;26.67;75.16
50282;BME280;36176;51.506;10.272;2023-06-22T07:41:07;99701.28;;;27.08;71.85
50282;BME280;36176;51.506;10.272;2023-06-22T07:43:34;99700.63;;;28.02;70.30
50282;BME280;36176;51.506;10.272;2023-06-22T07:46:04;99689.56;;;28.87;64.96
50282;BME280;36176;51.506;10.272;2023-06-22T07:48:31;99693.66;;;29.80;67.26
50282;BME280;36176;51.506;10.272;2023-06-22T07:50:58;99694.53;;;30.02;58.97
50282;BME280;36176;51.506;10.272;2023-06-22T07:53:25;99693.97;;;30.07;61.18
50282;BME280;36176;51.506;10.272;2023-06-22T07:55:53;99692.06;;;29.86;57.52
50282;BME280;36176;51.506;10.272;2023-06-22T07:58:20;99685.78;;;29.71;58.24
50282;BME280;36176;51.506;10.272;2023-06-22T08:00:47;99690.22;;;29.12;57.54
50282;BME280;36176;51.506;10.272;2023-06-22T08:03:16;99671.78;;;29.14;58.36
50282;BME280;36176;51.506;10.272;2023-06-22T08:05:45;99685.78;;;29.41;61.37
50282;BME280;36176;51.506;10.272;2023-06-22T08:08:14;99684.50;;;29.88;57.65
50282;BME280;36176;51.506;10.272;2023-06-22T08:10:41;99678.88;;;30.11;52.97
50282;BME280;36176;51.506;10.272;2023-06-22T08:13:11;99670.34;;;29.99;52.75
50282;BME280;36176;51.506;10.272;2023-06-22T08:15:39;99665.47;;;29.95;52.27
50282;BME280;36176;51.506;10.272;2023-06-22T08:18:06;99677.03;;;29.97;52.56
50282;BME280;36176;51.506;10.272;2023-06-22T08:20:33;99673.31;;;30.41;49.74
50282;BME280;36176;51.506;10.272;2023-06-22T08:23:00;99676.38;;;30.81;49.37
50282;BME280;36176;51.506;10.272;2023-06-22T08:25:33;99673.41;;;30.76;49.22
50282;BME280;36176;51.506;10.272;2023-06-22T08:28:02;99666.31;;;31.09;48.38
50282;BME280;36176;51.506;10.272;2023-06-22T08:30:37;99666.94;;;31.40;49.41
50282;BME280;36176;51.506;10.272;2023-06-22T08:33:06;99672.16;;;31.76;49.32
50282;BME280;36176;51.506;10.272;2023-06-22T08:35:33;99657.50;;;32.10;46.76
50282;BME280;36176;51.506;10.272;2023-06-22T08:38:00;99664.38;;;31.86;45.10
50282;BME280;36176;51.506;10.272;2023-06-22T08:40:48;99659.13;;;31.91;46.81
50282;BME280;36176;51.506;10.272;2023-06-22T08:43:37;99652.09;;;32.50;45.72
50282;BME280;36176;51.506;10.272;2023-06-22T08:46:11;99651.00;;;32.91;44.79
50282;BME280;36176;51.506;10.272;2023-06-22T08:48:38;99647.63;;;32.89;44.25
50282;BME280;36176;51.506;10.272;2023-06-22T08:51:05;99639.66;;;32.74;44.94
50282;BME280;36176;51.506;10.272;2023-06-22T08:53:33;99632.19;;;33.21;46.06
50282;BME280;36176;51.506;10.272;2023-06-22T08:56:01;99635.72;;;33.35;43.60
50282;BME280;36176;51.506;10.272;2023-06-22T08:58:29;99627.59;;;32.95;42.79
50282;BME280;36176;51.506;10.272;2023-06-22T09:00:56;99627.38;;;32.43;45.48
50282;BME280;36176;51.506;10.272;2023-06-22T09:03:23;99633.50;;;32.39;46.04
50282;BME280;36176;51.506;10.272;2023-06-22T09:06:06;99633.09;;;32.35;45.50
50282;BME280;36176;51.506;10.272;2023-06-22T09:09:53;99621.31;;;32.61;43.77
50282;BME280;36176;51.506;10.272;2023-06-22T09:13:41;99622.13;;;32.75;45.09
50282;BME280;36176;51.506;10.272;2023-06-22T09:32:45;99592.59;;;32.04;47.03
50282;BME280;36176;51.506;10.272;2023-06-22T09:35:12;99590.06;;;32.36;44.04
50282;BME280;36176;51.506;10.272;2023-06-22T09:37:46;99587.28;;;32.49;45.42
50282;BME280;36176;51.506;10.272;2023-06-22T09:40:13;99588.16;;;32.10;42.98
50282;BME280;36176;51.506;10.272;2023-06-22T09:42:47;99579.94;;;32.23;45.87
50282;BME280;36176;51.506;10.272;2023-06-22T09:45:14;99585.41;;;32.43;44.12
50282;BME280;36176;51.506;10.272;2023-06-22T09:47:41;99584.97;;;32.79;46.10
50282;BME280;36176;51.506;10.272;2023-06-22T09:50:09;99583.25;;;33.05;43.35
50282;BME280;36176;51.506;10.272;2023-06-22T09:52:37;99581.13;;;33.00;44.08
50282;BME280;36176;51.506;10.272;2023-06-22T09:55:07;99576.69;;;33.06;43.89
50282;BME280;36176;51.506;10.272;2023-06-22T09:57:34;99577.50;;;33.13;44.28
50282;BME280;36176;51.506;10.272;2023-06-22T10:00:02;99581.59;;;32.71;43.23
50282;BME280;36176;51.506;10.272;2023-06-22T10:02:32;99577.81;;;32.65;43.74
50282;BME280;36176;51.506;10.272;2023-06-22T10:04:59;99574.03;;;32.26;45.10
50282;BME280;36176;51.506;10.272;2023-06-22T10:07:27;99573.84;;;32.28;44.83
50282;BME280;36176;51.506;10.272;2023-06-22T10:09:55;99574.44;;;32.03;46.06
50282;BME280;36176;51.506;10.272;2023-06-22T10:12:22;99568.75;;;32.18;45.82
50282;BME280;36176;51.506;10.272;2023-06-22T10:14:49;99562.00;;;32.07;44.91
50282;BME280;36176;51.506;10.272;2023-06-22T10:17:19;99567.56;;;31.52;46.27
50282;BME280;36176;51.506;10.272;2023-06-22T10:19:47;99567.63;;;31.79;45.44
50282;BME280;36176;51.506;10.272;2023-06-22T10:22:14;99562.00;;;32.07;45.11
50282;BME280;36176;51.506;10.272;2023-06-22T10:24:41;99560.94;;;31.95;46.29
50282;BME280;36176;51.506;10.272;2023-06-22T10:27:11;99550.59;;;31.90;45.30
50282;BME280;36176;51.506;10.272;2023-06-22T10:29:38;99553.75;;;31.87;43.67
50282;BME280;36176;51.506;10.272;2023-06-22T10:32:06;99549.56;;;31.98;45.67
50282;BME280;36176;51.506;10.272;2023-06-22T10:34:33;99545.56;;;32.47;46.42
50282;BME280;36176;51.506;10.272;2023-06-22T10:37:00;99545.59;;;32.20;43.27
50282;BME280;36176;51.506;10.272;2023-06-22T10:39:27;99537.50;;;31.79;44.73
50282;BME280;36176;51.506;10.272;2023-06-22T10:41:55;99543.81;;;31.66;44.85
50282;BME280;36176;51.506;10.272;2023-06-22T10:44:23;99531.47;;;31.97;44.84
50282;BME280;36176;51.506;10.272;2023-06-22T10:46:56;99522.16;;;31.85;43.73
50282;BME280;36176;51.506;10.272;2023-06-22T10:49:50;99523.00;;;31.92;43.95
50282;BME280;36176;51.506;10.272;2023-06-22T10:52:20;99525.56;;;32.13;46.06
50282;BME280;36176;51.506;10.272;2023-06-22T10:54:47;99527.88;;;32.10;45.20
50282;BME280;36176;51.506;10.272;2023-06-22T10:57:16;99533.13;;;32.05;42.60
50282;BME280;36176;51.506;10.272;2023-06-22T10:59:43;99524.91;;;31.98;42.19
50282;BME280;36176;51.506;10.272;2023-06-22T11:02:10;99521.94;;;32.13;43.04
50282;BME280;36176;51.506;10.272;2023-06-22T11:04:39;99528.06;;;31.95;43.61
50282;BME280;36176;51.506;10.272;2023-06-22T11:07:06;99519.59;;;31.63;43.32
50282;BME280;36176;51.506;10.272;2023-06-22T11:09:33;99522.09;;;31.51;44.05
50282;BME280;36176;51.506;10.272;2023-06-22T11:12:00;99513.56;;;31.26;44.09
50282;BME280;36176;51.506;10.272;2023-06-22T11:14:28;99511.47;;;31.35;43.96
50282;BME280;36176;51.506;10.272;2023-06-22T11:16:55;99505.47;;;31.79;43.92
50282;BME280;36176;51.506;10.272;2023-06-22T11:19:23;99501.94;;;31.99;45.29
50282;BME280;36176;51.506;10.272;2023-06-22T11:21:50;99506.97;;;32.22;43.27
50282;BME280;36176;51.506;10.272;2023-06-22T11:24:19;99503.81;;;31.92;43.45
50282;BME280;36176;51.506;10.272;2023-06-22T11:26:46;99496.66;;;31.97;43.03
50282;BME280;36176;51.506;10.272;2023-06-22T11:29:14;99481.72;;;32.07;42.40
50282;BME280;36176;51.506;10.272;2023-06-22T11:32:01;99469.88;;;32.26;42.54
50282;BME280;36176;51.506;10.272;2023-06-22T11:34:28;99477.22;;;32.39;42.69
50282;BME280;36176;51.506;10.272;2023-06-22T11:36:56;99467.72;;;32.41;42.01
50282;BME280;36176;51.506;10.272;2023-06-22T11:39:23;99470.28;;;32.30;41.30
50282;BME280;36176;51.506;10.272;2023-06-22T11:42:07;99467.38;;;31.98;43.45
50282;BME280;36176;51.506;10.272;2023-06-22T11:44:37;99457.47;;;31.97;43.40
50282;BME280;36176;51.506;10.272;2023-06-22T11:47:05;99448.59;;;32.08;43.33
50282;BME280;36176;51.506;10.272;2023-06-22T11:49:32;99453.00;;;31.89;44.39
50282;BME280;36176;51.506;10.272;2023-06-22T11:51:59;99445.84;;;31.88;43.82
50282;BME280;36176;51.506;10.272;2023-06-22T11:54:26;99433.41;;;31.72;42.91
50282;BME280;36176;51.506;10.272;2023-06-22T11:56:54;99426.88;;;31.47;44.69
50282;BME280;36176;51.506;10.272;2023-06-22T11:59:22;99425.59;;;31.43;43.90
50282;BME280;36176;51.506;10.272;2023-06-22T12:01:49;99425.41;;;31.51;43.20
50282;BME280;36176;51.506;10.272;2023-06-22T12:04:18;99417.78;;;31.33;44.83
50282;BME280;36176;51.506;10.272;2023-06-22T12:06:47;99422.22;;;31.41;44.59
50282;BME280;36176;51.506;10.272;2023-06-22T12:09:14;99411.28;;;31.61;44.60
50282;BME280;36176;51.506;10.272;2023-06-22T12:11:43;99411.31;;;31.87;44.21
50282;BME280;36176;51.506;10.272;2023-06-22T12:14:10;99413.59;;;32.10;43.07
50282;BME280;36176;51.506;10.272;2023-06-22T12:16:37;99402.03;;;32.02;42.88
50282;BME280;36176;51.506;10.272;2023-06-22T12:19:05;99401.59;;;31.98;43.40
50282;BME280;36176;51.506;10.272;2023-06-22T12:21:33;99404.34;;;31.98;45.02
50282;BME280;36176;51.506;10.272;2023-06-22T12:24:00;99390.84;;;31.96;43.92
50282;BME280;36176;51.506;10.272;2023-06-22T12:26:27;99379.88;;;32.03;43.18
50282;BME280;36176;51.506;10.272;2023-06-22T12:28:55;99377.78;;;31.65;44.69
50282;BME280;36176;51.506;10.272;2023-06-22T12:31:22;99372.06;;;31.07;45.95
50282;BME280;36176;51.506;10.272;2023-06-22T12:33:52;99364.28;;;31.10;47.27
50282;BME280;36176;51.506;10.272;2023-06-22T12:36:19;99366.22;;;31.50;46.83
50282;BME280;36176;51.506;10.272;2023-06-22T12:38:46;99363.69;;;31.62;45.39
50282;BME280;36176;51.506;10.272;2023-06-22T12:41:13;99363.06;;;31.66;45.87
50282;BME280;36176;51.506;10.272;2023-06-22T12:43:41;99354.63;;;31.34;45.85
50282;BME280;36176;51.506;10.272;2023-06-22T12:46:08;99354.56;;;30.94;45.97
50282;BME280;36176;51.506;10.272;2023-06-22T12:48:35;99354.03;;;30.64;48.19
50282;BME280;36176;51.506;10.272;2023-06-22T12:51:09;99341.09;;;30.31;48.46
50282;BME280;36176;51.506;10.272;2023-06-22T12:53:36;99342.16;;;30.37;48.72
50282;BME280;36176;51.506;10.272;2023-06-22T12:56:03;99334.06;;;30.64;48.56
50282;BME280;36176;51.506;10.272;2023-06-22T12:58:30;99322.31;;;30.70;47.47
50282;BME280;36176;51.506;10.272;2023-06-22T13:00:58;99338.91;;;30.68;48.02
50282;BME280;36176;51.506;10.272;2023-06-22T13:03:25;99332.41;;;30.76;47.94
50282;BME280;36176;51.506;10.272;2023-06-22T13:05:54;99313.63;;;30.60;48.20
50282;BME280;36176;51.506;10.272;2023-06-22T13:08:22;99319.47;;;30.37;48.52
50282;BME280;36176;51.506;10.272;2023-06-22T13:11:01;99323.94;;;30.16;48.81
50282;BME280;36176;51.506;10.272;2023-06-22T13:13:28;99315.72;;;30.09;49.45
50282;BME280;36176;51.506;10.272;2023-06-22T13:15:55;99315.78;;;30.23;50.52